Time;durP1;ratioP1;P1;durP2;ratioP2;P2;SDS_P1;SDS_P2;PMS_P1;PMS_P2;Temp;Humidity;BMP_temperature;BMP_pressure;BME280_temperature;BME280_humidity;BME280_pressure;Samples;Min_cycle;Max_cycle;Signal;HPM_P1;HPM_P2
2022/06/04 00:01:08;;;;;;;12.37;6.12;;;;;;;18.52;79.08;99461.21;1564715;90;21061;-78
2022/06/04 00:03:35;;;;;;;9.38;6.20;;;;;;;18.48;80.00;99454.81;1596395;89;21110;-78
2022/06/04 00:06:02;;;;;;;12.40;6.78;;;;;;;18.51;80.03;99456.89;1584096;89;21596;-78
2022/06/04 00:08:30;;;;;;;13.30;7.00;;;;;;;18.47;79.60;99455.72;1580037;90;21045;-78
2022/06/04 00:16:29;;;;;;;14.73;7.25;;;;;;;18.42;80.18;99451.18;1582139;89;21136;-79
2022/06/04 00:18:57;;;;;;;15.55;7.70;;;;;;;18.40;81.31;99455.67;1569387;90;21142;-78
2022/06/04 00:21:24;;;;;;;12.68;7.60;;;;;;;18.37;82.06;99452.34;1559698;90;21017;-78
2022/06/04 00:23:50;;;;;;;14.15;7.90;;;;;;;18.35;80.40;99458.15;1580225;89;21618;-78
2022/06/04 00:26:19;;;;;;;12.90;7.83;;;;;;;18.31;80.28;99460.55;1578871;89;21069;-78
2022/06/04 00:28:46;;;;;;;12.37;7.70;;;;;;;18.29;80.89;99456.20;1567862;90;21059;-79
2022/06/04 00:31:15;;;;;;;17.35;7.85;;;;;;;18.27;80.79;99446.70;1593058;89;21012;-78
2022/06/04 00:33:43;;;;;;;17.55;7.97;;;;;;;18.22;81.28;99448.70;1569151;90;21088;-80
2022/06/04 00:36:10;;;;;;;15.38;8.08;;;;;;;18.17;80.59;99455.52;1577160;89;21071;-79
2022/06/04 00:38:37;;;;;;;15.70;8.65;;;;;;;18.14;81.07;99450.87;1595853;89;21386;-81
2022/06/04 00:41:12;;;;;;;15.85;7.97;;;;;;;18.09;80.50;99444.06;1556745;90;21048;-82
2022/06/04 00:44:02;;;;;;;19.80;7.62;;;;;;;18.09;80.43;99441.91;1567332;90;21092;-78
2022/06/04 00:46:55;;;;;;;13.22;8.10;;;;;;;18.09;81.41;99441.43;1570038;90;21070;-78
2022/06/04 00:49:22;;;;;;;12.82;7.75;;;;;;;18.11;81.37;99448.41;1579078;90;21068;-81
2022/06/04 00:51:51;;;;;;;12.15;7.20;;;;;;;18.03;81.62;99441.74;1569662;90;21078;-81
2022/06/04 00:54:19;;;;;;;19.20;7.72;;;;;;;18.05;81.84;99441.20;1554860;91;21595;-78
2022/06/04 00:57:14;;;;;;;13.62;6.65;;;;;;;18.06;81.06;99438.09;1570181;90;21147;-80
2022/06/04 01:00:17;;;;;;;13.03;6.60;;;;;;;18.05;81.22;99429.36;1576783;90;21117;-80
2022/06/04 01:03:16;;;;;;;10.88;6.70;;;;;;;18.02;82.28;99423.40;1580249;90;21072;-79
2022/06/04 01:06:23;;;;;;;10.85;6.28;;;;;;;18.04;82.08;99409.23;1576309;90;21087;-78
2022/06/04 01:09:19;;;;;;;10.75;6.17;;;;;;;18.06;81.70;99422.31;1572018;90;21197;-79
2022/06/04 01:12:31;;;;;;;11.53;5.60;;;;;;;18.07;81.34;99432.77;1589043;90;21073;-78
2022/06/04 01:15:07;;;;;;;11.20;5.10;;;;;;;18.05;81.22;99430.67;1575724;90;21117;-80
2022/06/04 01:18:03;;;;;;;9.30;5.33;;;;;;;18.04;81.63;99426.33;1587165;90;21114;-79
2022/06/04 01:20:58;;;;;;;14.13;5.25;;;;;;;18.06;81.36;99422.31;1575127;90;21125;-79
2022/06/04 01:23:48;;;;;;;10.58;5.12;;;;;;;18.09;81.49;99416.44;1560903;90;21118;-78
2022/06/04 01:26:34;;;;;;;9.50;5.20;;;;;;;18.08;81.50;99408.61;1517849;91;21678;-79
2022/06/04 01:29:09;;;;;;;9.25;5.15;;;;;;;18.07;80.27;99412.19;1572845;90;21077;-79
2022/06/04 01:31:50;;;;;;;12.53;5.25;;;;;;;17.97;80.04;99421.01;1581211;90;21100;-78
2022/06/04 01:34:21;;;;;;;12.05;5.17;;;;;;;17.90;80.39;99423.55;1592809;88;21058;-79
2022/06/04 01:37:02;;;;;;;11.48;5.33;;;;;;;17.83;80.82;99422.14;1576238;88;21093;-79
2022/06/04 01:41:03;;;;;;;8.35;4.80;;;;;;;17.76;81.35;99419.41;1559983;90;21074;-80
2022/06/04 01:42:04;;;;;;;14.28;5.30;;;;;;;17.66;81.93;99425.11;1579554;90;21036;-78
2022/06/04 01:44:35;;;;;;;7.12;4.78;;;;;;;17.60;80.75;99412.27;1568208;90;21062;-79
2022/06/04 01:47:04;;;;;;;7.35;4.45;;;;;;;17.56;80.67;99415.98;1583822;90;21096;-81
2022/06/04 01:49:42;;;;;;;10.50;4.78;;;;;;;17.48;80.52;99413.72;1567695;90;21090;-79
2022/06/04 01:52:20;;;;;;;11.68;4.40;;;;;;;17.44;80.75;99417.42;1582595;90;21082;-79
2022/06/04 01:54:55;;;;;;;8.23;4.72;;;;;;;17.36;80.86;99413.00;1568683;90;21047;-83
2022/06/04 01:57:34;;;;;;;8.05;4.95;;;;;;;17.35;81.39;99416.56;1556780;89;21526;-79
2022/06/04 02:00:21;;;;;;;10.88;4.78;;;;;;;17.35;81.63;99424.45;1574370;89;21191;-78
2022/06/04 02:03:07;;;;;;;10.65;4.67;;;;;;;17.32;80.86;99422.42;1562292;90;21338;-80
2022/06/04 02:05:42;;;;;;;7.58;4.62;;;;;;;17.27;81.38;99415.61;1564873;89;21067;-79
2022/06/04 02:08:14;;;;;;;11.63;5.00;;;;;;;17.33;81.88;99413.60;1574216;90;22201;-79
2022/06/04 02:10:46;;;;;;;10.10;5.30;;;;;;;17.37;81.97;99413.41;1584088;89;21083;-78
2022/06/04 02:13:15;;;;;;;8.83;5.03;;;;;;;17.44;82.27;99416.58;1588595;90;21561;-79
2022/06/04 02:15:55;;;;;;;10.20;5.30;;;;;;;17.46;81.86;99410.78;1555573;90;21123;-78
2022/06/04 02:18:21;;;;;;;11.12;5.20;;;;;;;17.50;81.93;99425.48;1566231;90;21477;-79
2022/06/04 02:20:48;;;;;;;9.88;6.35;;;;;;;17.50;81.41;99426.80;1567671;90;21047;-78
2022/06/04 02:23:16;;;;;;;9.83;4.95;;;;;;;17.49;82.36;99431.20;1573824;90;21521;-78
2022/06/04 02:25:43;;;;;;;8.38;4.65;;;;;;;17.52;82.29;99428.87;1572207;90;21078;-78
2022/06/04 02:28:10;;;;;;;11.50;6.08;;;;;;;17.54;81.67;99436.23;1576015;90;21580;-78
2022/06/04 02:30:48;;;;;;;11.03;6.20;;;;;;;17.52;81.97;99434.14;1583585;90;21105;-79
2022/06/04 02:33:32;;;;;;;12.85;6.20;;;;;;;17.54;82.32;99437.55;1574114;90;21572;-78
2022/06/04 02:36:12;;;;;;;11.05;5.60;;;;;;;17.55;82.04;99440.58;1580923;90;21098;-78
2022/06/04 02:39:02;;;;;;;12.70;6.70;;;;;;;17.55;82.08;99437.07;1575199;90;21613;-79
2022/06/04 02:41:34;;;;;;;15.75;6.40;;;;;;;17.53;82.14;99435.86;1579424;90;21086;-79
2022/06/04 02:44:21;;;;;;;26.77;7.35;;;;;;;17.53;82.04;99438.92;1574942;90;21093;-79
2022/06/04 02:47:18;;;;;;;18.62;6.12;;;;;;;17.50;82.17;99449.13;1570396;89;21078;-79
2022/06/04 02:49:50;;;;;;;21.93;6.83;;;;;;;17.47;82.35;99451.45;1597750;89;21122;-79
2022/06/04 02:52:19;;;;;;;15.28;6.67;;;;;;;17.43;82.03;99454.31;1567360;90;21076;-81
2022/06/04 02:54:59;;;;;;;20.75;6.65;;;;;;;17.41;82.30;99449.12;1581090;89;21115;-78
2022/06/04 02:57:30;;;;;;;14.18;5.80;;;;;;;17.40;82.78;99447.88;1585147;89;21556;-77
2022/06/04 02:59:59;;;;;;;10.75;6.33;;;;;;;17.39;82.62;99452.72;1564781;90;21080;-77
2022/06/04 03:02:29;;;;;;;11.57;6.25;;;;;;;17.37;82.68;99448.88;1585584;89;21050;-78
2022/06/04 03:04:56;;;;;;;13.50;6.95;;;;;;;17.38;82.50;99453.20;1584189;89;21628;-77
2022/06/04 03:07:24;;;;;;;14.45;5.83;;;;;;;17.38;82.19;99459.77;1564236;90;21064;-77
2022/06/04 03:09:56;;;;;;;18.75;6.25;;;;;;;17.40;83.33;99457.08;1560508;90;21080;-77
2022/06/04 03:12:23;;;;;;;20.90;6.28;;;;;;;17.43;82.67;99460.88;1589707;89;21048;-77
2022/06/04 03:14:50;;;;;;;48.30;7.58;;;;;;;17.47;82.66;99458.50;1578495;89;21072;-78
2022/06/04 03:17:17;;;;;;;34.63;7.35;;;;;;;17.54;83.19;99455.95;1570231;90;21116;-78
2022/06/04 03:19:43;;;;;;;25.25;6.00;;;;;;;17.62;82.99;99451.64;1577656;89;21071;-79
2022/06/04 03:22:10;;;;;;;23.40;6.10;;;;;;;17.67;82.68;99453.13;1570613;90;21052;-78
2022/06/04 03:24:37;;;;;;;14.85;5.28;;;;;;;17.77;82.76;99444.80;1565938;90;21037;-78
2022/06/04 03:27:04;;;;;;;10.18;5.42;;;;;;;17.85;82.61;99451.87;1589472;89;21085;-78
2022/06/04 03:29:31;;;;;;;15.32;5.33;;;;;;;17.94;82.51;99444.82;1584205;90;21524;-77
2022/06/04 03:31:58;;;;;;;9.33;4.95;;;;;;;18.02;81.81;99436.55;1558655;90;21093;-79
2022/06/04 03:34:25;;;;;;;9.20;4.40;;;;;;;18.00;81.31;99435.78;1571517;90;21071;-78
2022/06/04 03:36:51;;;;;;;10.18;4.67;;;;;;;18.01;81.02;99435.70;1564085;90;21048;-77
2022/06/04 03:39:18;;;;;;;11.22;6.00;;;;;;;17.99;80.62;99440.67;1581938;89;21057;-78
2022/06/04 03:41:45;;;;;;;9.60;5.80;;;;;;;18.01;80.49;99442.28;1583034;89;21125;-78
2022/06/04 03:44:12;;;;;;;12.53;5.40;;;;;;;18.06;81.06;99440.73;1577071;90;21108;-77
2022/06/04 03:46:38;;;;;;;9.25;5.15;;;;;;;18.12;81.02;99434.31;1557798;90;21151;-77
2022/06/04 03:49:06;;;;;;;12.58;5.58;;;;;;;18.19;80.19;99433.08;1583106;90;21088;-78
2022/06/04 03:51:33;;;;;;;13.40;5.20;;;;;;;18.21;79.58;99433.85;1569330;90;21103;-77
2022/06/04 03:54:00;;;;;;;9.23;5.58;;;;;;;18.20;79.81;99431.66;1580281;90;21113;-79
2022/06/04 03:56:27;;;;;;;7.60;5.15;;;;;;;18.26;80.29;99425.23;1570474;90;21073;-77
2022/06/04 03:58:53;;;;;;;13.30;5.65;;;;;;;18.31;80.14;99421.92;1597727;89;21057;-77
2022/06/04 04:01:24;;;;;;;10.03;5.75;;;;;;;18.38;80.28;99422.44;1595836;89;21581;-78
2022/06/04 04:03:52;;;;;;;9.08;4.60;;;;;;;18.43;79.45;99410.75;1582901;90;21138;-78
2022/06/04 04:06:23;;;;;;;9.43;5.08;;;;;;;18.46;79.58;99414.98;1596767;89;21098;-78
2022/06/04 04:08:51;;;;;;;8.43;4.53;;;;;;;18.52;79.42;99408.08;1578417;90;21029;-78
2022/06/04 04:11:23;;;;;;;7.87;4.53;;;;;;;18.58;79.34;99413.05;1583505;90;21031;-78
2022/06/04 04:13:53;;;;;;;10.78;4.78;;;;;;;18.63;79.24;99410.16;1585535;90;21073;-79
2022/06/04 04:16:23;;;;;;;7.50;4.53;;;;;;;18.70;79.09;99404.94;1592566;89;21185;-78
2022/06/04 04:18:50;;;;;;;29.42;4.80;;;;;;;18.79;78.96;99412.83;1586125;90;21062;-78
2022/06/04 04:21:21;;;;;;;7.95;4.95;;;;;;;18.86;78.67;99410.26;1566383;90;21634;-78
2022/06/04 04:23:48;;;;;;;12.70;4.80;;;;;;;18.94;78.50;99405.89;1560924;90;21073;-79
2022/06/04 04:26:16;;;;;;;8.83;5.35;;;;;;;18.98;78.04;99408.74;1568366;90;21059;-79
2022/06/04 04:28:43;;;;;;;12.65;5.45;;;;;;;19.01;77.96;99405.48;1557567;90;21068;-78
2022/06/04 04:31:19;;;;;;;11.00;5.28;;;;;;;19.09;77.75;99395.84;1580205;90;21078;-79
2022/06/04 04:33:47;;;;;;;9.98;4.80;;;;;;;19.17;77.09;99400.69;1587202;89;21135;-79
2022/06/04 04:36:15;;;;;;;13.18;5.67;;;;;;;19.18;76.82;99400.61;1595139;89;21574;-79
2022/06/04 04:38:42;;;;;;;14.60;6.17;;;;;;;19.22;76.63;99399.50;1574579;90;21073;-79
2022/06/04 04:41:13;;;;;;;11.57;6.28;;;;;;;19.22;76.50;99390.75;1581281;90;21093;-79
2022/06/04 04:43:41;;;;;;;17.82;6.22;;;;;;;19.26;76.36;99401.50;1580442;89;21116;-81
2022/06/04 04:46:12;;;;;;;12.95;7.03;;;;;;;19.32;76.64;99403.80;1600251;89;21077;-79
2022/06/04 04:48:39;;;;;;;18.70;7.12;;;;;;;19.42;76.37;99393.58;1599750;89;21074;-78
2022/06/04 04:51:13;;;;;;;17.10;7.35;;;;;;;19.53;76.97;99389.84;1582720;90;21064;-78
2022/06/04 04:53:40;;;;;;;15.53;7.62;;;;;;;19.65;76.35;99393.08;1572774;89;21046;-78
2022/06/04 04:56:07;;;;;;;12.68;6.92;;;;;;;19.77;76.09;99394.20;1564551;90;21052;-78
2022/06/04 04:58:34;;;;;;;12.90;6.95;;;;;;;19.89;76.18;99395.27;1585977;90;21578;-79
2022/06/04 05:01:01;;;;;;;14.63;7.25;;;;;;;20.06;75.96;99393.81;1592109;89;21124;-78
2022/06/04 05:03:28;;;;;;;15.58;7.15;;;;;;;20.17;75.30;99391.84;1603797;89;21070;-78
2022/06/04 05:06:00;;;;;;;11.78;6.60;;;;;;;20.35;75.48;99397.83;1577491;90;21636;-78
2022/06/04 05:08:27;;;;;;;13.50;6.70;;;;;;;20.41;75.40;99390.85;1588834;89;21080;-78
2022/06/04 05:10:54;;;;;;;13.62;7.30;;;;;;;20.62;75.47;99390.02;1570819;90;21679;-78
2022/06/04 05:13:21;;;;;;;16.25;8.13;;;;;;;20.85;74.26;99387.27;1583126;90;21061;-78
2022/06/04 05:15:48;;;;;;;14.47;6.97;;;;;;;21.05;73.98;99381.20;1569932;90;21059;-78
2022/06/04 05:18:15;;;;;;;13.75;7.87;;;;;;;21.24;73.55;99383.02;1569364;90;21080;-78
2022/06/04 05:20:42;;;;;;;14.87;7.67;;;;;;;21.26;73.15;99385.09;1571138;90;21664;-78
2022/06/04 05:23:09;;;;;;;13.05;7.35;;;;;;;21.34;72.62;99393.02;1575601;90;21095;-77
2022/06/04 05:25:37;;;;;;;14.63;7.60;;;;;;;21.32;72.01;99390.94;1561107;90;21111;-78
2022/06/04 05:28:05;;;;;;;15.35;7.92;;;;;;;21.35;71.72;99389.43;1571935;90;21072;-78
2022/06/04 05:30:31;;;;;;;13.98;7.20;;;;;;;21.32;71.68;99385.65;1575220;90;21503;-78
2022/06/04 05:32:58;;;;;;;14.58;8.08;;;;;;;21.38;71.33;99383.93;1580663;90;21124;-77
2022/06/04 05:35:25;;;;;;;15.05;6.80;;;;;;;21.44;71.49;99384.88;1561400;90;21044;-78
2022/06/04 05:37:52;;;;;;;12.82;7.40;;;;;;;21.47;71.34;99378.53;1559531;90;21082;-78
2022/06/04 05:40:18;;;;;;;15.40;7.72;;;;;;;21.47;70.91;99384.69;1558352;90;22056;-78
2022/06/04 05:42:45;;;;;;;14.30;7.70;;;;;;;21.49;70.95;99382.80;1559349;90;21099;-78
2022/06/04 05:45:12;;;;;;;14.55;7.78;;;;;;;21.51;70.69;99380.05;1565518;90;21088;-78
2022/06/04 05:47:39;;;;;;;15.15;8.10;;;;;;;21.53;70.41;99382.13;1551978;91;21061;-78
2022/06/04 05:50:06;;;;;;;15.70;8.00;;;;;;;21.61;70.67;99381.98;1579306;90;21601;-78
2022/06/04 05:52:33;;;;;;;13.80;7.75;;;;;;;21.69;70.53;99383.28;1571404;90;21059;-77
2022/06/04 05:54:59;;;;;;;14.65;7.22;;;;;;;21.72;70.41;99379.09;1579870;90;21061;-79
2022/06/04 05:57:26;;;;;;;12.13;7.45;;;;;;;21.82;70.64;99372.22;1563635;92;21646;-77
2022/06/04 05:59:53;;;;;;;18.85;8.33;;;;;;;21.88;70.51;99366.52;1539293;90;21033;-78
2022/06/04 06:02:20;;;;;;;12.45;7.40;;;;;;;21.96;69.73;99370.81;1547428;90;21684;-77
2022/06/04 06:04:47;;;;;;;13.68;8.68;;;;;;;22.04;69.97;99371.62;1576385;90;21073;-78
2022/06/04 06:07:13;;;;;;;15.45;9.00;;;;;;;22.15;69.55;99380.17;1574066;91;21116;-77
2022/06/04 06:09:40;;;;;;;14.65;8.50;;;;;;;22.30;69.49;99375.64;1562952;91;21089;-78
2022/06/04 06:12:08;;;;;;;10.98;8.58;;;;;;;22.42;69.25;99365.51;1565510;90;21051;-77
2022/06/04 06:14:35;;;;;;;14.80;9.48;;;;;;;22.47;68.79;99368.70;1571977;90;21081;-78
2022/06/04 06:17:01;;;;;;;17.82;8.98;;;;;;;22.57;68.27;99359.63;1578495;90;21660;-79
2022/06/04 06:19:30;;;;;;;18.55;9.25;;;;;;;22.64;68.36;99366.17;1566161;90;21587;-78
2022/06/04 06:21:57;;;;;;;15.48;8.95;;;;;;;22.69;67.69;99365.86;1569299;91;21065;-78
2022/06/04 06:24:23;;;;;;;18.20;9.50;;;;;;;22.69;66.91;99356.10;1566499;90;21066;-77
2022/06/04 06:26:57;;;;;;;13.03;8.53;;;;;;;22.71;67.48;99355.52;1553647;90;21631;-77
2022/06/04 06:29:28;;;;;;;21.05;9.88;;;;;;;22.70;66.88;99357.81;1563148;90;21111;-78
2022/06/04 06:31:57;;;;;;;17.12;10.15;;;;;;;22.80;67.17;99357.52;1573713;87;21783;-78
2022/06/04 06:34:25;;;;;;;14.83;8.93;;;;;;;22.96;67.33;99355.94;1566669;90;22093;-78
2022/06/04 06:36:52;;;;;;;18.52;10.00;;;;;;;23.10;67.06;99346.14;1589401;89;21036;-77
2022/06/04 06:39:19;;;;;;;15.70;10.28;;;;;;;23.18;66.60;99344.64;1589381;89;21076;-79
2022/06/04 06:41:46;;;;;;;20.30;10.53;;;;;;;23.22;66.50;99343.94;1583597;90;21597;-77
2022/06/04 06:44:14;;;;;;;19.48;9.33;;;;;;;23.32;66.46;99340.14;1565329;90;21089;-78
2022/06/04 06:46:45;;;;;;;22.13;9.45;;;;;;;23.39;66.33;99336.89;1574755;90;21169;-78
2022/06/04 06:49:24;;;;;;;20.88;9.88;;;;;;;23.48;66.56;99344.66;1548970;90;22380;-78
2022/06/04 06:51:57;;;;;;;19.32;9.15;;;;;;;23.54;66.28;99348.18;1594291;89;21057;-78
2022/06/04 06:54:27;;;;;;;;;;;;;;;23.59;66.37;99342.03;1591757;89;21059;-78
2022/06/04 06:56:56;;;;;;;13.38;8.95;;;;;;;23.66;66.15;99346.91;1582845;90;20163;-78
2022/06/04 06:59:27;;;;;;;15.43;9.20;;;;;;;23.70;66.54;99339.91;1564638;90;21036;-78
2022/06/04 07:01:55;;;;;;;21.87;9.50;;;;;;;23.80;66.47;99336.11;1559734;90;21009;-78
2022/06/04 07:04:23;;;;;;;18.15;9.93;;;;;;;23.94;66.14;99343.86;1557372;90;21547;-78
2022/06/04 07:06:58;;;;;;;21.87;9.65;;;;;;;24.07;65.95;99346.89;1558476;90;21068;-78
2022/06/04 07:09:30;;;;;;;19.10;9.30;;;;;;;24.19;65.52;99339.30;1565950;90;21756;-78
2022/06/04 07:11:57;;;;;;;15.05;9.85;;;;;;;24.31;65.00;99346.80;1573963;89;21097;-78
2022/06/04 07:14:24;;;;;;;18.02;9.80;;;;;;;24.46;64.28;99336.30;1596981;89;21066;-78
2022/06/04 07:16:53;;;;;;;15.80;9.85;;;;;;;24.40;64.10;99334.12;1573390;90;21114;-77
2022/06/04 07:19:23;;;;;;;17.98;9.28;;;;;;;24.44;64.30;99332.09;1597465;89;21044;-78
2022/06/04 07:21:51;;;;;;;18.05;9.98;;;;;;;24.45;63.83;99325.30;1595211;89;21047;-78
2022/06/04 07:24:19;;;;;;;20.57;9.55;;;;;;;24.50;63.61;99328.94;1585827;90;21089;-78
2022/06/04 07:26:46;;;;;;;16.48;9.48;;;;;;;24.58;62.49;99327.88;1567701;90;21099;-78
2022/06/04 07:29:13;;;;;;;15.60;8.78;;;;;;;24.75;63.31;99325.18;1567365;90;21683;-79
2022/06/04 07:31:40;;;;;;;17.35;9.15;;;;;;;24.96;63.18;99324.78;1569276;90;21071;-78
2022/06/04 07:34:07;;;;;;;15.72;9.83;;;;;;;25.12;61.98;99321.72;1565401;90;21049;-78
2022/06/04 07:36:42;;;;;;;19.00;9.10;;;;;;;25.28;62.05;99320.00;1567293;90;21087;-78
2022/06/04 07:39:12;;;;;;;19.05;9.70;;;;;;;25.41;61.44;99326.50;1563626;90;21092;-79
2022/06/04 07:41:43;;;;;;;17.15;10.00;;;;;;;25.64;61.71;99322.39;1566655;90;21091;-78
2022/06/04 07:44:14;;;;;;;16.90;10.23;;;;;;;25.78;61.77;99316.27;1573033;90;21129;-78
2022/06/04 07:46:42;;;;;;;15.25;9.40;;;;;;;26.00;60.33;99314.44;1574534;90;21078;-78
2022/06/04 07:49:11;;;;;;;14.28;9.60;;;;;;;26.13;59.59;99315.08;1588723;89;21553;-79
2022/06/04 07:51:39;;;;;;;15.90;9.58;;;;;;;26.19;60.00;99313.22;1598045;89;21087;-79
2022/06/04 07:54:08;;;;;;;13.72;9.15;;;;;;;26.15;60.24;99310.96;1577343;90;21057;-78
2022/06/04 07:56:37;;;;;;;13.83;9.43;;;;;;;26.11;59.21;99306.87;1576688;90;21454;-78
2022/06/04 07:59:06;;;;;;;14.87;9.00;;;;;;;26.13;59.69;99307.59;1568649;90;21042;-78
2022/06/04 08:01:32;;;;;;;14.75;8.75;;;;;;;26.19;60.09;99311.05;1565581;90;21132;-79
2022/06/04 08:03:59;;;;;;;17.20;9.05;;;;;;;26.34;60.24;99305.72;1567466;90;21107;-79
2022/06/04 08:06:27;;;;;;;12.75;8.15;;;;;;;26.37;60.47;99312.10;1599839;89;21734;-79
2022/06/04 08:08:55;;;;;;;19.62;9.73;;;;;;;26.52;60.46;99314.39;1584026;89;21039;-78
2022/06/04 08:11:32;;;;;;;16.27;9.63;;;;;;;26.51;59.88;99313.56;1588892;90;21017;-78
2022/06/04 08:14:19;;;;;;;17.50;9.73;;;;;;;26.56;59.80;99308.68;1553088;91;21507;-79
2022/06/04 08:16:51;;;;;;;15.25;8.30;;;;;;;26.60;59.70;99311.95;1572223;90;21159;-79
2022/06/04 08:19:19;;;;;;;16.77;9.43;;;;;;;26.95;59.32;99301.28;1567599;90;21102;-78
2022/06/04 08:21:46;;;;;;;15.93;8.55;;;;;;;26.95;59.32;99301.28;1577224;90;21132;-78
2022/06/04 08:24:16;;;;;;;16.00;9.18;;;;;;;27.09;59.08;99296.86;1567560;90;21079;-79
2022/06/04 08:26:46;;;;;;;18.07;9.40;;;;;;;27.22;58.62;99298.41;1574977;90;21620;-79
2022/06/04 08:29:15;;;;;;;14.18;8.70;;;;;;;27.35;58.15;99289.67;1585209;90;21630;-78
2022/06/04 08:31:42;;;;;;;14.95;8.23;;;;;;;27.35;57.81;99283.83;1576119;90;21093;-77
2022/06/04 08:34:09;;;;;;;17.05;9.60;;;;;;;27.50;58.09;99281.59;1583535;90;21077;-78
2022/06/04 08:36:35;;;;;;;15.25;9.85;;;;;;;27.73;58.00;99278.09;1573772;90;21057;-78
2022/06/04 08:39:04;;;;;;;18.27;10.10;;;;;;;27.93;57.48;99277.61;1588075;90;21533;-78
2022/06/04 08:41:39;;;;;;;16.15;9.98;;;;;;;28.05;56.53;99281.42;1571490;90;21076;-79
2022/06/04 08:44:19;;;;;;;17.45;8.65;;;;;;;28.21;56.88;99281.62;1584297;90;21100;-79
2022/06/04 08:47:25;;;;;;;16.67;9.20;;;;;;;28.29;56.79;99279.09;1553252;90;21088;-79
2022/06/04 08:50:03;;;;;;;13.53;8.78;;;;;;;28.41;56.48;99273.05;1570765;90;21201;-79
2022/06/04 08:52:38;;;;;;;15.10;8.73;;;;;;;28.50;56.46;99275.32;1560551;90;21062;-79
2022/06/04 08:58:34;;;;;;;17.15;9.28;;;;;;;28.46;55.85;99279.28;1571889;90;21057;-79
2022/06/04 09:01:29;;;;;;;12.70;8.60;;;;;;;28.44;54.99;99274.58;1564888;90;21602;-80
2022/06/04 09:04:31;;;;;;;13.65;8.30;;;;;;;28.47;54.78;99272.45;1568040;90;21107;-79
2022/06/04 09:07:18;;;;;;;12.15;8.75;;;;;;;28.46;55.09;99264.58;1561528;90;21071;-80
2022/06/04 09:10:10;;;;;;;16.77;9.03;;;;;;;28.55;55.21;99265.03;1564812;90;21088;-79
2022/06/04 09:12:51;;;;;;;11.85;8.38;;;;;;;28.60;54.95;99257.41;1543159;90;21092;-80
2022/06/04 09:15:29;;;;;;;17.23;8.45;;;;;;;28.62;54.67;99255.43;1586715;89;21014;-80
2022/06/04 09:18:22;;;;;;;17.80;9.48;;;;;;;28.68;54.30;99258.84;1548787;89;21105;-80
2022/06/04 09:20:59;;;;;;;12.00;8.60;;;;;;;28.66;54.97;99258.66;1550829;92;21032;-79
2022/06/04 09:23:43;;;;;;;13.10;8.98;;;;;;;28.66;54.79;99256.81;1579281;89;21093;-80
2022/06/04 09:26:19;;;;;;;13.85;7.87;;;;;;;28.62;54.78;99251.92;1591179;89;21101;-79
2022/06/04 09:29:28;;;;;;;14.68;8.15;;;;;;;28.62;54.93;99250.08;1562061;90;21096;-80
2022/06/04 09:32:17;;;;;;;10.72;8.03;;;;;;;28.57;54.98;99247.03;1557552;89;21582;-79
2022/06/04 09:34:51;;;;;;;13.03;8.03;;;;;;;28.58;54.26;99242.52;1583168;90;21030;-79
2022/06/04 09:37:18;;;;;;;12.90;8.13;;;;;;;28.69;55.13;99244.48;1582713;90;21041;-79
2022/06/04 09:39:50;;;;;;;16.32;8.20;;;;;;;28.89;55.03;99242.52;1571395;90;22058;-79
2022/06/04 09:42:24;;;;;;;14.25;8.08;;;;;;;28.97;54.33;99229.71;1572095;90;21577;-79
2022/06/04 09:44:58;;;;;;;13.00;8.28;;;;;;;29.07;54.36;99244.36;1557359;92;21120;-80
2022/06/04 09:47:39;;;;;;;11.85;8.35;;;;;;;29.10;53.87;99239.51;1574473;90;21072;-79
2022/06/04 09:50:23;;;;;;;14.23;8.20;;;;;;;29.21;53.91;99241.63;1586920;90;21093;-79
2022/06/04 09:53:01;;;;;;;14.60;8.40;;;;;;;29.07;53.40;99239.84;1584921;90;21037;-79
2022/06/04 09:55:28;;;;;;;15.25;9.05;;;;;;;28.97;52.96;99236.41;1571828;90;21101;-79
2022/06/04 09:58:07;;;;;;;13.45;8.05;;;;;;;28.87;53.50;99235.61;1566888;90;21131;-80
2022/06/04 10:00:38;;;;;;;15.20;8.40;;;;;;;28.78;53.73;99232.53;1559602;90;21053;-79
2022/06/04 10:03:15;;;;;;;14.68;8.63;;;;;;;28.65;53.94;99235.08;1580334;90;21563;-79
2022/06/04 10:06:04;;;;;;;14.47;7.62;;;;;;;28.66;53.91;99234.08;1570167;90;21069;-79
2022/06/04 10:09:54;;;;;;;15.58;8.68;;;;;;;28.55;54.15;99234.28;1566789;90;21093;-79
2022/06/04 10:11:05;;;;;;;14.98;8.53;;;;;;;28.45;54.15;99234.80;1579769;89;21023;-80
2022/06/04 10:13:43;;;;;;;13.58;8.30;;;;;;;28.20;54.42;99233.69;1555711;90;21074;-80
2022/06/04 10:16:18;;;;;;;14.18;8.40;;;;;;;28.07;54.62;99228.66;1572904;89;21045;-78
2022/06/04 10:19:05;;;;;;;12.13;8.60;;;;;;;28.01;54.88;99226.58;1578593;89;21033;-79
2022/06/04 10:21:37;;;;;;;13.85;8.70;;;;;;;27.86;54.98;99229.70;1572875;89;21628;-78
2022/06/04 10:24:27;;;;;;;12.45;7.95;;;;;;;27.75;55.41;99225.40;1582210;89;21067;-80
2022/06/04 10:27:12;;;;;;;19.20;10.13;;;;;;;27.70;55.95;99229.48;1573933;89;21096;-79
2022/06/04 10:29:50;;;;;;;17.37;10.38;;;;;;;27.64;55.90;99224.73;1559708;91;21043;-80
2022/06/04 10:32:35;;;;;;;14.13;8.88;;;;;;;27.67;55.87;99227.09;1576454;89;21045;-80
2022/06/04 10:35:16;;;;;;;16.62;9.03;;;;;;;27.75;56.21;99221.39;1566504;89;21371;-80
2022/06/04 10:38:05;;;;;;;12.53;8.70;;;;;;;27.80;56.64;99223.61;1579629;89;21620;-80
2022/06/04 10:40:56;;;;;;;19.10;9.35;;;;;;;28.01;56.69;99215.89;1572944;89;21552;-79
2022/06/04 10:43:40;;;;;;;13.80;8.33;;;;;;;28.22;55.98;99215.67;1580131;89;21635;-79
2022/06/04 10:46:21;;;;;;;;;;;;;;;28.39;56.08;99207.33;1597663;89;21101;-79
2022/06/04 10:49:40;;;;;;;12.20;8.43;;;;;;;28.57;55.12;99212.27;1584969;89;20167;-79
2022/06/04 10:52:37;;;;;;;13.55;8.15;;;;;;;28.74;55.55;99212.75;1576162;89;21519;-80
2022/06/04 10:55:24;;;;;;;12.88;7.72;;;;;;;29.11;55.18;99212.27;1566472;89;21561;-79
2022/06/04 10:58:39;;;;;;;12.95;7.87;;;;;;;29.41;54.04;99215.04;1570054;89;21027;-79
2022/06/04 11:01:14;;;;;;;13.55;7.47;;;;;;;29.71;52.45;99210.20;1572836;89;21562;-79
2022/06/04 11:04:01;;;;;;;14.95;7.80;;;;;;;29.83;52.41;99202.27;1575364;86;21031;-79
2022/06/04 11:06:36;;;;;;;15.03;7.58;;;;;;;30.17;52.14;99205.43;1601992;89;21029;-79
2022/06/04 11:09:14;;;;;;;11.20;7.72;;;;;;;30.45;49.85;99201.20;1575992;88;21089;-80
2022/06/04 11:11:57;;;;;;;15.35;8.18;;;;;;;30.67;50.09;99193.86;1594027;87;21137;-79
2022/06/04 11:14:49;;;;;;;10.05;7.30;;;;;;;30.86;48.67;99197.25;1593130;89;21081;-79
2022/06/04 11:17:44;;;;;;;13.60;7.93;;;;;;;31.17;49.57;99196.61;1585799;89;21098;-80
2022/06/04 11:20:25;;;;;;;11.78;7.90;;;;;;;30.98;48.19;99204.48;1593990;89;21067;-79
2022/06/04 11:22:59;;;;;;;14.10;7.92;;;;;;;31.22;48.69;99193.75;1580176;90;21073;-80
2022/06/04 11:25:32;;;;;;;12.07;6.62;;;;;;;31.35;47.90;99187.85;1576936;90;21100;-79
2022/06/04 11:28:05;;;;;;;;;;;;;;;31.48;47.07;99187.38;1573486;90;21088;-79
2022/06/04 11:30:49;;;;;;;15.20;7.40;;;;;;;31.55;47.40;99188.86;1572732;90;20179;-80
2022/06/04 11:33:33;;;;;;;13.20;6.33;;;;;;;31.57;46.90;99186.84;1579182;90;21030;-80
2022/06/04 11:36:25;;;;;;;10.20;6.53;;;;;;;31.56;44.41;99187.87;1573904;90;21019;-79
2022/06/04 11:39:47;;;;;;;10.20;6.77;;;;;;;31.58;45.07;99175.93;1575481;88;21089;-79
2022/06/04 11:42:29;;;;;;;13.50;6.80;;;;;;;31.74;45.34;99172.88;1587067;90;21569;-80
2022/06/04 11:45:30;;;;;;;10.70;6.45;;;;;;;31.80;44.58;99160.08;1572207;90;21088;-80
2022/06/04 11:48:05;;;;;;;12.53;6.67;;;;;;;31.75;42.73;99160.58;1578792;90;21063;-79
2022/06/04 11:50:40;;;;;;;11.53;6.60;;;;;;;31.55;43.47;99156.11;1584314;89;21059;-79
2022/06/04 11:53:43;;;;;;;11.50;6.22;;;;;;;31.60;43.46;99151.59;1562586;91;21087;-79
2022/06/04 11:56:30;;;;;;;10.08;5.90;;;;;;;31.67;42.93;99148.00;1557539;90;21104;-79
2022/06/04 11:59:08;;;;;;;11.30;6.00;;;;;;;32.01;40.54;99144.23;1588425;89;21061;-79
2022/06/04 12:01:46;;;;;;;7.75;5.72;;;;;;;32.22;42.28;99140.09;1571127;90;21120;-80
2022/06/04 12:04:36;;;;;;;9.20;5.72;;;;;;;32.47;42.48;99134.02;1592027;89;21104;-79
2022/06/04 12:07:10;;;;;;;8.35;5.83;;;;;;;32.75;42.21;99132.17;1562470;90;21114;-80
2022/06/04 12:10:03;;;;;;;8.70;5.60;;;;;;;32.86;40.55;99125.84;1572156;89;21093;-79